Archival Weather

South Haven Area Rgnl

South Haven, Michigan (KLWA)

Report from: Tuesday, September 19, 2023 6:15 AM EDT
Current time: Saturday, July 13, 2024 9:41 PM EDT

Current weather – Weather history – Daily summaries
Weather forecast

Temperature10.2°C (50.4°F)
Dew point9.5°C (49.1°F)
Winds Calm
Visibility10 mi. (16.1 km)
Clouds Scattered clouds 7,000 ft. (2,134 m)
Altimeter30.05 in.Hg (1018 mB)
Relative humidity95 %
Density altitude-553 ft. (-169 m)
Remarks Fully automated report
Automated weather observing station with precipitation discriminator
Flight conditions Visual Meteorological Conditions
Raw dataKLWA 191015Z AUTO 00000KT 10SM SCT070 10/10 A3005 RMK AO2 T01020095
An error has occurred. This application may no longer respond until reloaded. Reload 🗙